sensor_id;sensor_type;location;lat;lon;timestamp;temperature;humidity
48988;DHT22;34799;51.440;-2.534;2022-08-19T00:02:03;20.00;99.90
48988;DHT22;34799;51.440;-2.534;2022-08-19T00:04:32;20.00;99.90
48988;DHT22;34799;51.440;-2.534;2022-08-19T00:07:05;20.00;99.90
48988;DHT22;34799;51.440;-2.534;2022-08-19T00:09:32;19.90;99.90
48988;DHT22;34799;51.440;-2.534;2022-08-19T00:12:00;19.90;99.90
48988;DHT22;34799;51.440;-2.534;2022-08-19T00:14:29;18.30;99.90
48988;DHT22;34799;51.440;-2.534;2022-08-19T00:16:59;19.70;99.90
48988;DHT22;34799;51.440;-2.534;2022-08-19T00:19:26;19.70;99.90
48988;DHT22;34799;51.440;-2.534;2022-08-19T00:21:54;19.60;99.90
48988;DHT22;34799;51.440;-2.534;2022-08-19T00:24:23;19.50;99.90
48988;DHT22;34799;51.440;-2.534;2022-08-19T00:26:51;19.40;99.90
48988;DHT22;34799;51.440;-2.534;2022-08-19T00:29:20;19.40;99.90
48988;DHT22;34799;51.440;-2.534;2022-08-19T00:31:49;19.30;99.90
48988;DHT22;34799;51.440;-2.534;2022-08-19T00:34:20;19.30;99.90
48988;DHT22;34799;51.440;-2.534;2022-08-19T00:36:47;19.30;99.90
48988;DHT22;34799;51.440;-2.534;2022-08-19T00:39:16;19.30;99.90
48988;DHT22;34799;51.440;-2.534;2022-08-19T00:41:44;19.30;99.90
48988;DHT22;34799;51.440;-2.534;2022-08-19T00:44:18;19.30;99.90
48988;DHT22;34799;51.440;-2.534;2022-08-19T00:46:48;19.30;99.90
48988;DHT22;34799;51.440;-2.534;2022-08-19T00:49:36;19.20;99.90
48988;DHT22;34799;51.440;-2.534;2022-08-19T00:52:08;19.20;99.90
48988;DHT22;34799;51.440;-2.534;2022-08-19T00:54:37;19.20;99.90
48988;DHT22;34799;51.440;-2.534;2022-08-19T00:57:10;19.10;99.90
48988;DHT22;34799;51.440;-2.534;2022-08-19T00:59:44;19.10;99.90
48988;DHT22;34799;51.440;-2.534;2022-08-19T01:02:12;19.10;99.90
48988;DHT22;34799;51.440;-2.534;2022-08-19T01:04:40;19.10;99.90
48988;DHT22;34799;51.440;-2.534;2022-08-19T01:07:07;19.00;99.90
48988;DHT22;34799;51.440;-2.534;2022-08-19T01:09:34;19.10;99.90
48988;DHT22;34799;51.440;-2.534;2022-08-19T01:12:03;19.10;99.90
48988;DHT22;34799;51.440;-2.534;2022-08-19T01:14:30;19.10;99.90
48988;DHT22;34799;51.440;-2.534;2022-08-19T01:16:58;19.10;99.90
48988;DHT22;34799;51.440;-2.534;2022-08-19T01:19:35;19.00;99.90
48988;DHT22;34799;51.440;-2.534;2022-08-19T01:24:40;18.90;99.90
48988;DHT22;34799;51.440;-2.534;2022-08-19T01:27:08;18.80;99.90
48988;DHT22;34799;51.440;-2.534;2022-08-19T01:29:38;18.90;99.90
48988;DHT22;34799;51.440;-2.534;2022-08-19T01:32:09;18.90;99.90
48988;DHT22;34799;51.440;-2.534;2022-08-19T01:34:39;18.90;99.90
48988;DHT22;34799;51.440;-2.534;2022-08-19T01:37:09;19.00;99.90
48988;DHT22;34799;51.440;-2.534;2022-08-19T01:39:39;19.00;99.90
48988;DHT22;34799;51.440;-2.534;2022-08-19T01:42:08;18.90;99.90
48988;DHT22;34799;51.440;-2.534;2022-08-19T01:44:39;19.00;99.90
48988;DHT22;34799;51.440;-2.534;2022-08-19T01:47:09;19.00;99.90
48988;DHT22;34799;51.440;-2.534;2022-08-19T01:49:37;19.00;99.90
48988;DHT22;34799;51.440;-2.534;2022-08-19T01:52:05;19.00;99.90
48988;DHT22;34799;51.440;-2.534;2022-08-19T01:54:33;19.00;99.90
48988;DHT22;34799;51.440;-2.534;2022-08-19T01:57:08;19.00;99.90
48988;DHT22;34799;51.440;-2.534;2022-08-19T01:59:39;18.90;99.90
48988;DHT22;34799;51.440;-2.534;2022-08-19T02:02:06;18.90;99.90
48988;DHT22;34799;51.440;-2.534;2022-08-19T02:04:37;18.90;99.90
48988;DHT22;34799;51.440;-2.534;2022-08-19T02:07:07;18.90;99.90
48988;DHT22;34799;51.440;-2.534;2022-08-19T02:09:34;18.80;99.90
48988;DHT22;34799;51.440;-2.534;2022-08-19T02:12:04;18.80;99.90
48988;DHT22;34799;51.440;-2.534;2022-08-19T02:14:31;18.80;99.90
48988;DHT22;34799;51.440;-2.534;2022-08-19T02:17:00;18.80;99.90
48988;DHT22;34799;51.440;-2.534;2022-08-19T02:19:27;18.80;99.90
48988;DHT22;34799;51.440;-2.534;2022-08-19T02:21:56;18.80;99.90
48988;DHT22;34799;51.440;-2.534;2022-08-19T02:24:23;18.80;99.90
48988;DHT22;34799;51.440;-2.534;2022-08-19T02:26:50;18.70;99.90
48988;DHT22;34799;51.440;-2.534;2022-08-19T02:29:17;18.70;99.90
48988;DHT22;34799;51.440;-2.534;2022-08-19T02:31:44;18.70;99.90
48988;DHT22;34799;51.440;-2.534;2022-08-19T02:34:13;18.80;99.90
48988;DHT22;34799;51.440;-2.534;2022-08-19T02:36:40;18.70;99.90
48988;DHT22;34799;51.440;-2.534;2022-08-19T02:39:08;18.80;99.90
48988;DHT22;34799;51.440;-2.534;2022-08-19T02:41:35;18.70;99.90
48988;DHT22;34799;51.440;-2.534;2022-08-19T02:44:03;18.80;99.90
48988;DHT22;34799;51.440;-2.534;2022-08-19T02:46:33;18.80;99.90
48988;DHT22;34799;51.440;-2.534;2022-08-19T02:49:04;18.80;99.90
48988;DHT22;34799;51.440;-2.534;2022-08-19T02:51:36;17.30;99.90
48988;DHT22;34799;51.440;-2.534;2022-08-19T02:54:05;18.80;99.90
48988;DHT22;34799;51.440;-2.534;2022-08-19T02:56:35;18.80;99.90
48988;DHT22;34799;51.440;-2.534;2022-08-19T02:59:03;18.80;99.90
48988;DHT22;34799;51.440;-2.534;2022-08-19T03:01:34;18.80;99.90
48988;DHT22;34799;51.440;-2.534;2022-08-19T03:04:04;18.80;99.90
48988;DHT22;34799;51.440;-2.534;2022-08-19T03:06:31;18.90;99.90
48988;DHT22;34799;51.440;-2.534;2022-08-19T03:09:00;18.90;99.90
48988;DHT22;34799;51.440;-2.534;2022-08-19T03:11:30;18.90;99.90
48988;DHT22;34799;51.440;-2.534;2022-08-19T03:13:59;18.80;99.90
48988;DHT22;34799;51.440;-2.534;2022-08-19T03:16:30;18.80;99.90
48988;DHT22;34799;51.440;-2.534;2022-08-19T03:18:57;18.70;99.90
48988;DHT22;34799;51.440;-2.534;2022-08-19T03:21:31;18.80;99.90
48988;DHT22;34799;51.440;-2.534;2022-08-19T03:24:02;18.70;99.90
48988;DHT22;34799;51.440;-2.534;2022-08-19T03:26:30;18.70;99.90
48988;DHT22;34799;51.440;-2.534;2022-08-19T03:29:00;18.60;99.90
48988;DHT22;34799;51.440;-2.534;2022-08-19T03:31:29;18.50;99.90
48988;DHT22;34799;51.440;-2.534;2022-08-19T03:33:57;18.50;99.90
48988;DHT22;34799;51.440;-2.534;2022-08-19T03:36:26;18.50;99.90
48988;DHT22;34799;51.440;-2.534;2022-08-19T03:38:57;18.40;99.90
48988;DHT22;34799;51.440;-2.534;2022-08-19T03:41:32;18.40;99.90
48988;DHT22;34799;51.440;-2.534;2022-08-19T03:43:59;18.40;99.90
48988;DHT22;34799;51.440;-2.534;2022-08-19T03:46:29;18.40;99.90
48988;DHT22;34799;51.440;-2.534;2022-08-19T03:49:00;18.40;99.90
48988;DHT22;34799;51.440;-2.534;2022-08-19T03:51:33;18.40;99.90
48988;DHT22;34799;51.440;-2.534;2022-08-19T03:54:05;18.30;99.90
48988;DHT22;34799;51.440;-2.534;2022-08-19T03:56:38;18.40;99.90
48988;DHT22;34799;51.440;-2.534;2022-08-19T03:59:14;18.30;99.90
48988;DHT22;34799;51.440;-2.534;2022-08-19T04:01:42;18.20;99.90
48988;DHT22;34799;51.440;-2.534;2022-08-19T04:04:10;18.20;99.90
48988;DHT22;34799;51.440;-2.534;2022-08-19T04:06:38;18.10;99.90
48988;DHT22;34799;51.440;-2.534;2022-08-19T04:09:07;18.10;99.90
48988;DHT22;34799;51.440;-2.534;2022-08-19T04:11:48;18.30;99.90
48988;DHT22;34799;51.440;-2.534;2022-08-19T04:14:18;18.20;99.90
48988;DHT22;34799;51.440;-2.534;2022-08-19T04:16:47;18.10;99.90
48988;DHT22;34799;51.440;-2.534;2022-08-19T04:19:16;18.10;99.90
48988;DHT22;34799;51.440;-2.534;2022-08-19T04:21:47;18.10;99.90
48988;DHT22;34799;51.440;-2.534;2022-08-19T04:24:17;18.10;99.90
48988;DHT22;34799;51.440;-2.534;2022-08-19T04:26:46;18.10;99.90
48988;DHT22;34799;51.440;-2.534;2022-08-19T04:29:21;18.10;99.90
48988;DHT22;34799;51.440;-2.534;2022-08-19T04:31:52;18.10;99.90
48988;DHT22;34799;51.440;-2.534;2022-08-19T04:34:24;18.10;99.90
48988;DHT22;34799;51.440;-2.534;2022-08-19T04:36:53;18.10;99.90
48988;DHT22;34799;51.440;-2.534;2022-08-19T04:39:25;18.10;99.90
48988;DHT22;34799;51.440;-2.534;2022-08-19T04:42:17;18.10;99.90
48988;DHT22;34799;51.440;-2.534;2022-08-19T04:45:04;18.10;99.90
48988;DHT22;34799;51.440;-2.534;2022-08-19T04:47:33;18.10;99.90
48988;DHT22;34799;51.440;-2.534;2022-08-19T04:50:00;18.00;99.90
48988;DHT22;34799;51.440;-2.534;2022-08-19T04:52:27;18.00;99.90
48988;DHT22;34799;51.440;-2.534;2022-08-19T04:54:55;18.10;99.90
48988;DHT22;34799;51.440;-2.534;2022-08-19T04:57:22;17.90;99.90
48988;DHT22;34799;51.440;-2.534;2022-08-19T04:59:54;17.90;99.90
48988;DHT22;34799;51.440;-2.534;2022-08-19T05:02:21;18.00;99.90
48988;DHT22;34799;51.440;-2.534;2022-08-19T05:04:59;17.80;99.90
48988;DHT22;34799;51.440;-2.534;2022-08-19T05:07:27;17.80;99.90
48988;DHT22;34799;51.440;-2.534;2022-08-19T05:09:56;17.80;99.90
48988;DHT22;34799;51.440;-2.534;2022-08-19T05:12:23;17.80;99.90
48988;DHT22;34799;51.440;-2.534;2022-08-19T05:14:50;17.80;99.90
48988;DHT22;34799;51.440;-2.534;2022-08-19T05:17:19;17.80;99.90
48988;DHT22;34799;51.440;-2.534;2022-08-19T05:19:55;17.70;99.90
48988;DHT22;34799;51.440;-2.534;2022-08-19T05:22:41;17.60;99.90
48988;DHT22;34799;51.440;-2.534;2022-08-19T05:25:19;17.60;99.90
48988;DHT22;34799;51.440;-2.534;2022-08-19T05:27:47;17.60;99.90
48988;DHT22;34799;51.440;-2.534;2022-08-19T05:30:15;17.60;99.90
48988;DHT22;34799;51.440;-2.534;2022-08-19T05:32:43;17.60;99.90
48988;DHT22;34799;51.440;-2.534;2022-08-19T05:35:10;17.60;99.90
48988;DHT22;34799;51.440;-2.534;2022-08-19T05:37:39;17.50;99.90
48988;DHT22;34799;51.440;-2.534;2022-08-19T05:40:08;17.50;99.90
48988;DHT22;34799;51.440;-2.534;2022-08-19T05:42:35;17.40;99.90
48988;DHT22;34799;51.440;-2.534;2022-08-19T05:45:03;17.30;99.90
48988;DHT22;34799;51.440;-2.534;2022-08-19T05:47:32;17.20;99.90
48988;DHT22;34799;51.440;-2.534;2022-08-19T05:49:59;17.20;99.90
48988;DHT22;34799;51.440;-2.534;2022-08-19T05:52:28;17.40;99.90
48988;DHT22;34799;51.440;-2.534;2022-08-19T05:54:57;16.90;99.90
48988;DHT22;34799;51.440;-2.534;2022-08-19T05:57:24;16.90;99.90
48988;DHT22;34799;51.440;-2.534;2022-08-19T05:59:51;16.90;99.90
48988;DHT22;34799;51.440;-2.534;2022-08-19T06:02:20;16.80;99.90
48988;DHT22;34799;51.440;-2.534;2022-08-19T06:04:47;16.90;99.90
48988;DHT22;34799;51.440;-2.534;2022-08-19T06:07:15;17.00;99.90
48988;DHT22;34799;51.440;-2.534;2022-08-19T06:09:42;16.90;99.90
48988;DHT22;34799;51.440;-2.534;2022-08-19T06:12:09;17.00;99.90
48988;DHT22;34799;51.440;-2.534;2022-08-19T06:14:37;17.20;99.90
48988;DHT22;34799;51.440;-2.534;2022-08-19T06:17:04;17.10;99.90
48988;DHT22;34799;51.440;-2.534;2022-08-19T06:19:32;17.20;99.90
48988;DHT22;34799;51.440;-2.534;2022-08-19T06:22:00;17.20;99.90
48988;DHT22;34799;51.440;-2.534;2022-08-19T06:24:29;17.20;99.90
48988;DHT22;34799;51.440;-2.534;2022-08-19T06:26:58;17.20;99.90
48988;DHT22;34799;51.440;-2.534;2022-08-19T06:29:26;17.20;99.90
48988;DHT22;34799;51.440;-2.534;2022-08-19T06:31:57;17.20;99.90
48988;DHT22;34799;51.440;-2.534;2022-08-19T06:34:27;17.30;99.90
48988;DHT22;34799;51.440;-2.534;2022-08-19T06:36:56;17.20;99.90
48988;DHT22;34799;51.440;-2.534;2022-08-19T06:39:27;17.20;99.90
48988;DHT22;34799;51.440;-2.534;2022-08-19T06:41:57;17.40;99.90
48988;DHT22;34799;51.440;-2.534;2022-08-19T06:44:31;17.30;99.90
48988;DHT22;34799;51.440;-2.534;2022-08-19T06:47:07;17.30;99.90
48988;DHT22;34799;51.440;-2.534;2022-08-19T06:49:36;17.30;99.90
48988;DHT22;34799;51.440;-2.534;2022-08-19T06:52:04;17.40;99.90
48988;DHT22;34799;51.440;-2.534;2022-08-19T06:54:31;17.40;99.90
48988;DHT22;34799;51.440;-2.534;2022-08-19T06:57:00;17.60;99.90
48988;DHT22;34799;51.440;-2.534;2022-08-19T06:59:30;17.50;99.90
48988;DHT22;34799;51.440;-2.534;2022-08-19T07:02:01;17.60;99.90
48988;DHT22;34799;51.440;-2.534;2022-08-19T07:04:31;17.60;99.90
48988;DHT22;34799;51.440;-2.534;2022-08-19T07:07:04;17.60;99.90
48988;DHT22;34799;51.440;-2.534;2022-08-19T07:09:39;17.60;99.90
48988;DHT22;34799;51.440;-2.534;2022-08-19T07:12:08;17.60;99.90
48988;DHT22;34799;51.440;-2.534;2022-08-19T07:14:38;17.60;99.90
48988;DHT22;34799;51.440;-2.534;2022-08-19T07:17:09;17.60;99.90
48988;DHT22;34799;51.440;-2.534;2022-08-19T07:19:38;17.60;99.90
48988;DHT22;34799;51.440;-2.534;2022-08-19T07:22:10;17.50;99.90
48988;DHT22;34799;51.440;-2.534;2022-08-19T07:24:37;17.50;99.90
48988;DHT22;34799;51.440;-2.534;2022-08-19T07:27:06;17.50;99.90
48988;DHT22;34799;51.440;-2.534;2022-08-19T07:29:35;17.30;99.90
48988;DHT22;34799;51.440;-2.534;2022-08-19T07:32:04;17.30;99.90
48988;DHT22;34799;51.440;-2.534;2022-08-19T07:34:34;17.30;99.90
48988;DHT22;34799;51.440;-2.534;2022-08-19T07:37:05;17.60;99.90
48988;DHT22;34799;51.440;-2.534;2022-08-19T07:39:36;17.30;99.90
48988;DHT22;34799;51.440;-2.534;2022-08-19T07:42:07;17.20;99.90
48988;DHT22;34799;51.440;-2.534;2022-08-19T07:44:35;17.30;99.90
48988;DHT22;34799;51.440;-2.534;2022-08-19T07:47:04;17.30;99.90
48988;DHT22;34799;51.440;-2.534;2022-08-19T07:49:31;17.30;99.90
48988;DHT22;34799;51.440;-2.534;2022-08-19T07:52:02;17.40;99.90
48988;DHT22;34799;51.440;-2.534;2022-08-19T07:54:31;17.30;99.90
48988;DHT22;34799;51.440;-2.534;2022-08-19T07:57:03;17.40;99.90
48988;DHT22;34799;51.440;-2.534;2022-08-19T07:59:30;17.40;99.90
48988;DHT22;34799;51.440;-2.534;2022-08-19T08:01:57;17.50;99.90
48988;DHT22;34799;51.440;-2.534;2022-08-19T08:04:29;17.50;99.90
48988;DHT22;34799;51.440;-2.534;2022-08-19T08:07:15;17.50;99.90
48988;DHT22;34799;51.440;-2.534;2022-08-19T08:10:03;17.50;99.90
48988;DHT22;34799;51.440;-2.534;2022-08-19T08:12:36;17.60;99.90
48988;DHT22;34799;51.440;-2.534;2022-08-19T08:15:09;17.70;99.90
48988;DHT22;34799;51.440;-2.534;2022-08-19T08:17:37;17.70;99.90
48988;DHT22;34799;51.440;-2.534;2022-08-19T08:20:05;17.70;99.90
48988;DHT22;34799;51.440;-2.534;2022-08-19T08:22:33;17.80;99.90
48988;DHT22;34799;51.440;-2.534;2022-08-19T08:25:21;17.80;99.90
48988;DHT22;34799;51.440;-2.534;2022-08-19T08:27:51;17.90;99.90
48988;DHT22;34799;51.440;-2.534;2022-08-19T08:30:23;17.80;99.90
48988;DHT22;34799;51.440;-2.534;2022-08-19T08:32:51;17.90;99.90
48988;DHT22;34799;51.440;-2.534;2022-08-19T08:35:21;18.00;99.90
48988;DHT22;34799;51.440;-2.534;2022-08-19T08:37:50;17.50;99.90
48988;DHT22;34799;51.440;-2.534;2022-08-19T08:45:38;18.10;99.90
48988;DHT22;34799;51.440;-2.534;2022-08-19T08:48:21;18.10;99.90
48988;DHT22;34799;51.440;-2.534;2022-08-19T08:50:52;18.10;99.90
48988;DHT22;34799;51.440;-2.534;2022-08-19T08:53:22;18.20;99.90
48988;DHT22;34799;51.440;-2.534;2022-08-19T08:55:50;18.20;99.90
48988;DHT22;34799;51.440;-2.534;2022-08-19T08:58:26;18.40;99.90
48988;DHT22;34799;51.440;-2.534;2022-08-19T09:00:57;18.40;99.90
48988;DHT22;34799;51.440;-2.534;2022-08-19T09:03:26;18.50;99.90
48988;DHT22;34799;51.440;-2.534;2022-08-19T09:11:04;18.50;99.70
48988;DHT22;34799;51.440;-2.534;2022-08-19T09:16:19;18.60;99.60
48988;DHT22;34799;51.440;-2.534;2022-08-19T09:18:52;18.50;99.00
48988;DHT22;34799;51.440;-2.534;2022-08-19T09:21:21;18.60;99.90
48988;DHT22;34799;51.440;-2.534;2022-08-19T09:23:52;18.80;99.60
48988;DHT22;34799;51.440;-2.534;2022-08-19T09:26:21;18.70;99.60
48988;DHT22;34799;51.440;-2.534;2022-08-19T09:28:51;18.80;99.60
48988;DHT22;34799;51.440;-2.534;2022-08-19T09:31:22;18.90;99.90
48988;DHT22;34799;51.440;-2.534;2022-08-19T09:33:51;18.90;99.10
48988;DHT22;34799;51.440;-2.534;2022-08-19T09:36:21;19.10;98.40
48988;DHT22;34799;51.440;-2.534;2022-08-19T09:38:49;19.10;99.10
48988;DHT22;34799;51.440;-2.534;2022-08-19T09:41:19;19.10;99.00
48988;DHT22;34799;51.440;-2.534;2022-08-19T09:43:49;19.10;99.20
48988;DHT22;34799;51.440;-2.534;2022-08-19T09:46:19;19.10;98.50
48988;DHT22;34799;51.440;-2.534;2022-08-19T09:48:48;19.10;97.90
48988;DHT22;34799;51.440;-2.534;2022-08-19T09:51:21;19.10;98.10
48988;DHT22;34799;51.440;-2.534;2022-08-19T09:53:50;19.10;98.20
48988;DHT22;34799;51.440;-2.534;2022-08-19T09:56:19;19.20;98.30
48988;DHT22;34799;51.440;-2.534;2022-08-19T09:58:47;19.30;97.70
48988;DHT22;34799;51.440;-2.534;2022-08-19T10:01:18;19.40;97.90
48988;DHT22;34799;51.440;-2.534;2022-08-19T10:03:48;19.50;98.00
48988;DHT22;34799;51.440;-2.534;2022-08-19T10:06:17;19.60;98.60
48988;DHT22;34799;51.440;-2.534;2022-08-19T10:08:44;19.60;98.90
48988;DHT22;34799;51.440;-2.534;2022-08-19T10:11:12;19.60;99.00
48988;DHT22;34799;51.440;-2.534;2022-08-19T10:13:43;19.50;98.70
48988;DHT22;34799;51.440;-2.534;2022-08-19T10:16:14;19.50;98.60
48988;DHT22;34799;51.440;-2.534;2022-08-19T10:18:43;19.40;98.90
48988;DHT22;34799;51.440;-2.534;2022-08-19T10:21:14;19.30;99.50
48988;DHT22;34799;51.440;-2.534;2022-08-19T10:23:46;19.20;99.90
48988;DHT22;34799;51.440;-2.534;2022-08-19T10:26:18;19.20;99.90
48988;DHT22;34799;51.440;-2.534;2022-08-19T10:28:46;19.10;99.90
48988;DHT22;34799;51.440;-2.534;2022-08-19T10:31:19;19.20;99.90
48988;DHT22;34799;51.440;-2.534;2022-08-19T10:33:47;18.90;99.90
48988;DHT22;34799;51.440;-2.534;2022-08-19T10:36:18;18.90;99.90
48988;DHT22;34799;51.440;-2.534;2022-08-19T10:38:49;19.00;99.90
48988;DHT22;34799;51.440;-2.534;2022-08-19T10:41:22;19.10;99.90
48988;DHT22;34799;51.440;-2.534;2022-08-19T10:43:59;19.20;99.90
48988;DHT22;34799;51.440;-2.534;2022-08-19T10:46:28;19.20;99.90
48988;DHT22;34799;51.440;-2.534;2022-08-19T10:49:00;19.40;99.90
48988;DHT22;34799;51.440;-2.534;2022-08-19T10:51:28;19.50;99.90
48988;DHT22;34799;51.440;-2.534;2022-08-19T10:54:15;19.50;99.90
48988;DHT22;34799;51.440;-2.534;2022-08-19T10:56:43;19.70;99.90
48988;DHT22;34799;51.440;-2.534;2022-08-19T10:59:25;19.80;99.90
48988;DHT22;34799;51.440;-2.534;2022-08-19T11:02:00;19.90;99.90
48988;DHT22;34799;51.440;-2.534;2022-08-19T11:04:28;20.10;99.90
48988;DHT22;34799;51.440;-2.534;2022-08-19T11:06:55;20.20;99.90
48988;DHT22;34799;51.440;-2.534;2022-08-19T11:09:25;20.40;99.90
48988;DHT22;34799;51.440;-2.534;2022-08-19T11:12:00;20.50;99.90
48988;DHT22;34799;51.440;-2.534;2022-08-19T11:14:27;20.70;99.90
48988;DHT22;34799;51.440;-2.534;2022-08-19T11:16:56;20.60;99.90
48988;DHT22;34799;51.440;-2.534;2022-08-19T11:19:23;20.70;99.90
48988;DHT22;34799;51.440;-2.534;2022-08-19T11:21:52;20.60;99.80
48988;DHT22;34799;51.440;-2.534;2022-08-19T11:24:23;20.70;99.90
48988;DHT22;34799;51.440;-2.534;2022-08-19T11:26:54;20.80;99.90
48988;DHT22;34799;51.440;-2.534;2022-08-19T11:29:25;21.00;99.50
48988;DHT22;34799;51.440;-2.534;2022-08-19T11:31:54;21.10;99.40
48988;DHT22;34799;51.440;-2.534;2022-08-19T11:34:23;21.20;98.90
48988;DHT22;34799;51.440;-2.534;2022-08-19T11:36:51;21.30;99.00
48988;DHT22;34799;51.440;-2.534;2022-08-19T11:39:21;21.40;98.80
48988;DHT22;34799;51.440;-2.534;2022-08-19T11:41:49;21.40;98.40
48988;DHT22;34799;51.440;-2.534;2022-08-19T11:44:16;21.50;98.40
48988;DHT22;34799;51.440;-2.534;2022-08-19T11:46:45;21.50;98.10
48988;DHT22;34799;51.440;-2.534;2022-08-19T11:49:15;21.30;98.40
48988;DHT22;34799;51.440;-2.534;2022-08-19T11:51:43;21.50;98.70
48988;DHT22;34799;51.440;-2.534;2022-08-19T11:54:13;21.70;98.30
48988;DHT22;34799;51.440;-2.534;2022-08-19T11:56:41;21.70;97.20
48988;DHT22;34799;51.440;-2.534;2022-08-19T11:59:09;21.40;97.00
48988;DHT22;34799;51.440;-2.534;2022-08-19T12:01:40;21.20;96.80
48988;DHT22;34799;51.440;-2.534;2022-08-19T12:04:09;21.10;97.40
48988;DHT22;34799;51.440;-2.534;2022-08-19T12:06:38;20.90;97.80
48988;DHT22;34799;51.440;-2.534;2022-08-19T12:09:07;20.80;98.10
48988;DHT22;34799;51.440;-2.534;2022-08-19T12:11:36;20.80;98.30
48988;DHT22;34799;51.440;-2.534;2022-08-19T12:14:06;20.70;98.80
48988;DHT22;34799;51.440;-2.534;2022-08-19T12:16:36;20.80;99.60
48988;DHT22;34799;51.440;-2.534;2022-08-19T12:19:06;20.80;99.20
48988;DHT22;34799;51.440;-2.534;2022-08-19T12:21:35;20.70;99.40
48988;DHT22;34799;51.440;-2.534;2022-08-19T12:24:03;20.70;99.30
48988;DHT22;34799;51.440;-2.534;2022-08-19T12:26:35;20.70;99.40
48988;DHT22;34799;51.440;-2.534;2022-08-19T12:29:03;20.70;99.60
48988;DHT22;34799;51.440;-2.534;2022-08-19T12:31:31;20.80;99.60
48988;DHT22;34799;51.440;-2.534;2022-08-19T12:34:00;20.80;99.30
48988;DHT22;34799;51.440;-2.534;2022-08-19T12:36:28;20.80;99.30
48988;DHT22;34799;51.440;-2.534;2022-08-19T12:38:58;21.00;98.60
48988;DHT22;34799;51.440;-2.534;2022-08-19T12:41:26;21.20;97.90
48988;DHT22;34799;51.440;-2.534;2022-08-19T12:43:53;21.50;97.70
48988;DHT22;34799;51.440;-2.534;2022-08-19T12:46:20;21.70;96.80
48988;DHT22;34799;51.440;-2.534;2022-08-19T12:48:47;21.60;97.20
48988;DHT22;34799;51.440;-2.534;2022-08-19T12:51:17;21.60;97.20
48988;DHT22;34799;51.440;-2.534;2022-08-19T12:53:47;21.50;96.80
48988;DHT22;34799;51.440;-2.534;2022-08-19T12:56:14;21.40;96.50
48988;DHT22;34799;51.440;-2.534;2022-08-19T12:58:42;21.30;96.60
48988;DHT22;34799;51.440;-2.534;2022-08-19T13:01:12;21.50;96.70
48988;DHT22;34799;51.440;-2.534;2022-08-19T13:03:40;21.60;96.20
48988;DHT22;34799;51.440;-2.534;2022-08-19T13:06:08;21.70;96.70
48988;DHT22;34799;51.440;-2.534;2022-08-19T13:08:37;21.70;96.50
48988;DHT22;34799;51.440;-2.534;2022-08-19T13:11:14;21.90;96.50
48988;DHT22;34799;51.440;-2.534;2022-08-19T13:13:43;21.90;96.00
48988;DHT22;34799;51.440;-2.534;2022-08-19T13:16:11;21.70;96.10
48988;DHT22;34799;51.440;-2.534;2022-08-19T13:18:41;21.60;96.70
48988;DHT22;34799;51.440;-2.534;2022-08-19T13:21:10;21.70;96.70
48988;DHT22;34799;51.440;-2.534;2022-08-19T13:23:41;21.90;96.80
48988;DHT22;34799;51.440;-2.534;2022-08-19T13:26:10;22.20;96.60
48988;DHT22;34799;51.440;-2.534;2022-08-19T13:28:37;22.30;96.00
48988;DHT22;34799;51.440;-2.534;2022-08-19T13:31:25;22.30;96.10
48988;DHT22;34799;51.440;-2.534;2022-08-19T13:34:12;22.30;96.20
48988;DHT22;34799;51.440;-2.534;2022-08-19T13:36:39;22.20;96.20
48988;DHT22;34799;51.440;-2.534;2022-08-19T13:39:08;22.30;95.50
48988;DHT22;34799;51.440;-2.534;2022-08-19T13:41:36;22.20;94.50
48988;DHT22;34799;51.440;-2.534;2022-08-19T13:44:04;22.00;94.70
48988;DHT22;34799;51.440;-2.534;2022-08-19T13:46:34;21.90;94.40
48988;DHT22;34799;51.440;-2.534;2022-08-19T13:49:01;22.00;95.00
48988;DHT22;34799;51.440;-2.534;2022-08-19T13:51:28;22.10;95.30
48988;DHT22;34799;51.440;-2.534;2022-08-19T13:53:55;22.30;95.50
48988;DHT22;34799;51.440;-2.534;2022-08-19T13:56:23;22.50;94.20
48988;DHT22;34799;51.440;-2.534;2022-08-19T13:58:53;22.50;94.30
48988;DHT22;34799;51.440;-2.534;2022-08-19T14:01:21;22.40;94.80
48988;DHT22;34799;51.440;-2.534;2022-08-19T14:03:48;22.30;94.10
48988;DHT22;34799;51.440;-2.534;2022-08-19T14:06:16;22.30;94.10
48988;DHT22;34799;51.440;-2.534;2022-08-19T14:08:43;22.30;94.70
48988;DHT22;34799;51.440;-2.534;2022-08-19T14:11:12;22.40;95.30
48988;DHT22;34799;51.440;-2.534;2022-08-19T14:13:39;22.40;95.60
48988;DHT22;34799;51.440;-2.534;2022-08-19T14:16:12;22.50;95.20
48988;DHT22;34799;51.440;-2.534;2022-08-19T14:18:40;22.40;94.90
48988;DHT22;34799;51.440;-2.534;2022-08-19T14:21:08;22.40;95.20
48988;DHT22;34799;51.440;-2.534;2022-08-19T14:23:40;22.70;95.50
48988;DHT22;34799;51.440;-2.534;2022-08-19T14:26:13;23.60;94.90
48988;DHT22;34799;51.440;-2.534;2022-08-19T14:28:41;23.00;94.40
48988;DHT22;34799;51.440;-2.534;2022-08-19T14:31:13;23.00;94.40
48988;DHT22;34799;51.440;-2.534;2022-08-19T14:33:41;23.10;94.50
48988;DHT22;34799;51.440;-2.534;2022-08-19T14:36:09;23.00;93.80
48988;DHT22;34799;51.440;-2.534;2022-08-19T14:38:36;22.90;94.80
48988;DHT22;34799;51.440;-2.534;2022-08-19T14:41:21;23.00;94.90
48988;DHT22;34799;51.440;-2.534;2022-08-19T14:43:52;22.90;94.70
48988;DHT22;34799;51.440;-2.534;2022-08-19T14:46:22;22.80;94.90
48988;DHT22;34799;51.440;-2.534;2022-08-19T14:48:51;22.90;95.10
48988;DHT22;34799;51.440;-2.534;2022-08-19T14:51:20;22.80;94.90
48988;DHT22;34799;51.440;-2.534;2022-08-19T14:53:48;23.00;95.00
48988;DHT22;34799;51.440;-2.534;2022-08-19T14:56:20;23.00;95.10
48988;DHT22;34799;51.440;-2.534;2022-08-19T14:58:47;23.00;95.10
48988;DHT22;34799;51.440;-2.534;2022-08-19T15:01:19;23.20;95.00
48988;DHT22;34799;51.440;-2.534;2022-08-19T15:03:50;23.10;94.60
48988;DHT22;34799;51.440;-2.534;2022-08-19T15:06:23;23.10;94.20
48988;DHT22;34799;51.440;-2.534;2022-08-19T15:08:52;23.20;93.90
48988;DHT22;34799;51.440;-2.534;2022-08-19T15:11:23;23.00;94.00
48988;DHT22;34799;51.440;-2.534;2022-08-19T15:13:51;22.90;94.20
48988;DHT22;34799;51.440;-2.534;2022-08-19T15:16:21;22.80;95.00
48988;DHT22;34799;51.440;-2.534;2022-08-19T15:18:52;23.00;94.90
48988;DHT22;34799;51.440;-2.534;2022-08-19T15:21:20;23.30;94.90
48988;DHT22;34799;51.440;-2.534;2022-08-19T15:23:48;23.30;94.90
48988;DHT22;34799;51.440;-2.534;2022-08-19T15:26:18;23.50;94.60
48988;DHT22;34799;51.440;-2.534;2022-08-19T15:28:48;23.60;94.60
48988;DHT22;34799;51.440;-2.534;2022-08-19T15:31:18;23.60;94.50
48988;DHT22;34799;51.440;-2.534;2022-08-19T15:33:47;23.30;94.50
48988;DHT22;34799;51.440;-2.534;2022-08-19T15:36:15;23.40;95.00
48988;DHT22;34799;51.440;-2.534;2022-08-19T15:38:42;23.40;94.80
48988;DHT22;34799;51.440;-2.534;2022-08-19T15:41:18;23.40;95.00
48988;DHT22;34799;51.440;-2.534;2022-08-19T15:46:27;23.60;94.10
48988;DHT22;34799;51.440;-2.534;2022-08-19T15:48:56;23.60;94.70
48988;DHT22;34799;51.440;-2.534;2022-08-19T15:51:25;23.30;95.30